sensor_id;sensor_type;location;lat;lon;timestamp;pressure;altitude;pressure_sealevel;temperature;humidity
23616;BME280;11985;49.404;7.734;2022-09-02T00:00:32;97348.66;;;13.76;71.62
23616;BME280;11985;49.404;7.734;2022-09-02T00:02:34;97344.38;;;13.74;71.67
23616;BME280;11985;49.404;7.734;2022-09-02T00:04:35;97342.78;;;13.73;71.82
23616;BME280;11985;49.404;7.734;2022-09-02T00:06:37;97347.28;;;13.73;71.77
23616;BME280;11985;49.404;7.734;2022-09-02T00:08:39;97342.22;;;13.71;71.78
23616;BME280;11985;49.404;7.734;2022-09-02T00:10:42;97344.84;;;13.71;71.93
23616;BME280;11985;49.404;7.734;2022-09-02T00:12:46;97343.81;;;13.72;71.91
23616;BME280;11985;49.404;7.734;2022-09-02T00:14:48;97348.22;;;13.79;71.83
23616;BME280;11985;49.404;7.734;2022-09-02T00:16:49;97345.47;;;13.85;72.22
23616;BME280;11985;49.404;7.734;2022-09-02T00:18:52;97339.50;;;13.90;71.94
23616;BME280;11985;49.404;7.734;2022-09-02T00:20:55;97335.38;;;13.94;71.79
23616;BME280;11985;49.404;7.734;2022-09-02T00:22:57;97335.81;;;13.91;71.94
23616;BME280;11985;49.404;7.734;2022-09-02T00:24:58;97333.19;;;13.91;72.00
23616;BME280;11985;49.404;7.734;2022-09-02T00:27:00;97333.03;;;13.86;71.78
23616;BME280;11985;49.404;7.734;2022-09-02T00:29:03;97331.88;;;13.82;71.88
23616;BME280;11985;49.404;7.734;2022-09-02T00:31:05;97334.38;;;13.77;71.99
23616;BME280;11985;49.404;7.734;2022-09-02T00:33:07;97331.38;;;13.73;72.08
23616;BME280;11985;49.404;7.734;2022-09-02T00:35:09;97337.13;;;13.70;72.21
23616;BME280;11985;49.404;7.734;2022-09-02T00:37:11;97325.00;;;13.62;72.24
23616;BME280;11985;49.404;7.734;2022-09-02T00:39:13;97325.09;;;13.56;72.29
23616;BME280;11985;49.404;7.734;2022-09-02T00:41:15;97322.88;;;13.53;72.41
23616;BME280;11985;49.404;7.734;2022-09-02T00:43:25;97316.22;;;13.50;72.65
23616;BME280;11985;49.404;7.734;2022-09-02T00:45:28;97318.84;;;13.50;72.64
23616;BME280;11985;49.404;7.734;2022-09-02T00:47:30;97320.31;;;13.46;72.90
23616;BME280;11985;49.404;7.734;2022-09-02T00:49:34;97319.94;;;13.42;72.99
23616;BME280;11985;49.404;7.734;2022-09-02T00:51:42;97322.03;;;13.40;72.92
23616;BME280;11985;49.404;7.734;2022-09-02T00:53:45;97318.44;;;13.35;73.21
23616;BME280;11985;49.404;7.734;2022-09-02T00:55:49;97318.44;;;13.35;73.44
23616;BME280;11985;49.404;7.734;2022-09-02T00:57:53;97319.88;;;13.31;73.59
23616;BME280;11985;49.404;7.734;2022-09-02T01:00:04;97321.16;;;13.28;73.77
23616;BME280;11985;49.404;7.734;2022-09-02T01:02:07;97319.31;;;13.29;73.83
23616;BME280;11985;49.404;7.734;2022-09-02T01:04:09;97325.19;;;13.31;73.85
23616;BME280;11985;49.404;7.734;2022-09-02T01:06:11;97320.50;;;13.33;73.96
23616;BME280;11985;49.404;7.734;2022-09-02T01:08:17;97319.88;;;13.31;74.06
23616;BME280;11985;49.404;7.734;2022-09-02T01:10:21;97319.75;;;13.26;73.96
23616;BME280;11985;49.404;7.734;2022-09-02T01:12:23;97320.78;;;13.25;74.13
23616;BME280;11985;49.404;7.734;2022-09-02T01:14:26;97328.34;;;13.21;74.25
23616;BME280;11985;49.404;7.734;2022-09-02T01:16:33;97322.66;;;13.17;74.42
23616;BME280;11985;49.404;7.734;2022-09-02T01:18:39;97322.38;;;13.07;74.37
23616;BME280;11985;49.404;7.734;2022-09-02T01:20:43;97334.13;;;13.11;74.50
23616;BME280;11985;49.404;7.734;2022-09-02T01:22:47;97325.75;;;13.14;74.57
23616;BME280;11985;49.404;7.734;2022-09-02T01:24:49;97332.88;;;13.14;74.61
23616;BME280;11985;49.404;7.734;2022-09-02T01:26:52;97332.88;;;13.14;74.68
23616;BME280;11985;49.404;7.734;2022-09-02T01:28:54;97328.84;;;13.11;74.81
23616;BME280;11985;49.404;7.734;2022-09-02T01:30:58;97329.88;;;13.10;74.88
23616;BME280;11985;49.404;7.734;2022-09-02T01:33:00;97328.22;;;13.09;74.92
23616;BME280;11985;49.404;7.734;2022-09-02T01:35:03;97327.66;;;13.07;74.92
23616;BME280;11985;49.404;7.734;2022-09-02T01:37:05;97325.59;;;13.09;75.10
23616;BME280;11985;49.404;7.734;2022-09-02T01:39:10;97338.22;;;13.07;75.06
23616;BME280;11985;49.404;7.734;2022-09-02T01:41:12;97322.00;;;13.04;75.09
23616;BME280;11985;49.404;7.734;2022-09-02T01:43:15;97322.44;;;13.01;75.21
23616;BME280;11985;49.404;7.734;2022-09-02T01:45:17;97323.66;;;12.98;75.35
23616;BME280;11985;49.404;7.734;2022-09-02T01:47:21;97323.31;;;12.94;75.32
23616;BME280;11985;49.404;7.734;2022-09-02T01:49:24;97314.78;;;12.92;75.48
23616;BME280;11985;49.404;7.734;2022-09-02T01:51:25;97317.44;;;12.92;75.50
23616;BME280;11985;49.404;7.734;2022-09-02T01:53:28;97315.59;;;12.93;75.73
23616;BME280;11985;49.404;7.734;2022-09-02T01:55:31;97309.88;;;12.96;75.67
23616;BME280;11985;49.404;7.734;2022-09-02T01:57:33;97319.88;;;12.94;75.59
23616;BME280;11985;49.404;7.734;2022-09-02T01:59:35;97322.94;;;12.91;75.83
23616;BME280;11985;49.404;7.734;2022-09-02T02:01:37;97318.91;;;12.88;75.75
23616;BME280;11985;49.404;7.734;2022-09-02T02:03:39;97311.41;;;12.85;76.01
23616;BME280;11985;49.404;7.734;2022-09-02T02:05:40;97315.66;;;12.86;75.95
23616;BME280;11985;49.404;7.734;2022-09-02T02:07:43;97315.00;;;12.91;76.10
23616;BME280;11985;49.404;7.734;2022-09-02T02:09:44;97314.59;;;12.94;76.22
23616;BME280;11985;49.404;7.734;2022-09-02T02:11:47;97311.94;;;12.94;76.25
23616;BME280;11985;49.404;7.734;2022-09-02T02:13:49;97307.47;;;12.94;76.33
23616;BME280;11985;49.404;7.734;2022-09-02T02:15:51;97316.34;;;13.00;76.33
23616;BME280;11985;49.404;7.734;2022-09-02T02:17:52;97311.06;;;13.00;76.32
23616;BME280;11985;49.404;7.734;2022-09-02T02:19:54;97312.69;;;13.01;76.44
23616;BME280;11985;49.404;7.734;2022-09-02T02:21:55;97307.97;;;13.03;76.46
23616;BME280;11985;49.404;7.734;2022-09-02T02:23:57;97307.38;;;13.01;76.32
23616;BME280;11985;49.404;7.734;2022-09-02T02:26:00;97310.44;;;12.98;76.42
23616;BME280;11985;49.404;7.734;2022-09-02T02:28:03;97305.63;;;12.95;76.38
23616;BME280;11985;49.404;7.734;2022-09-02T02:30:06;97307.06;;;12.91;76.40
23616;BME280;11985;49.404;7.734;2022-09-02T02:32:08;97302.66;;;12.85;76.56
23616;BME280;11985;49.404;7.734;2022-09-02T02:34:11;97310.44;;;12.80;76.44
23616;BME280;11985;49.404;7.734;2022-09-02T02:36:13;97309.25;;;12.76;76.66
23616;BME280;11985;49.404;7.734;2022-09-02T02:38:14;97305.66;;;12.70;76.63
23616;BME280;11985;49.404;7.734;2022-09-02T02:40:17;97298.38;;;12.65;76.83
23616;BME280;11985;49.404;7.734;2022-09-02T02:42:19;97304.53;;;12.59;76.96
23616;BME280;11985;49.404;7.734;2022-09-02T02:44:22;97300.13;;;12.53;76.87
23616;BME280;11985;49.404;7.734;2022-09-02T02:46:24;97307.88;;;12.48;77.07
23616;BME280;11985;49.404;7.734;2022-09-02T02:48:26;97303.03;;;12.45;77.13
23616;BME280;11985;49.404;7.734;2022-09-02T02:50:27;97299.44;;;12.39;77.29
23616;BME280;11985;49.404;7.734;2022-09-02T02:52:29;97299.63;;;12.38;77.42
23616;BME280;11985;49.404;7.734;2022-09-02T02:54:31;97303.59;;;12.29;77.46
23616;BME280;11985;49.404;7.734;2022-09-02T02:56:32;97304.22;;;12.24;77.58
23616;BME280;11985;49.404;7.734;2022-09-02T02:58:34;97301.63;;;12.18;77.73
23616;BME280;11985;49.404;7.734;2022-09-02T03:00:37;97291.50;;;12.14;77.98
23616;BME280;11985;49.404;7.734;2022-09-02T03:02:39;97298.25;;;12.10;77.97
23616;BME280;11985;49.404;7.734;2022-09-02T03:04:40;97290.75;;;12.07;78.05
23616;BME280;11985;49.404;7.734;2022-09-02T03:06:42;97300.50;;;12.07;78.37
23616;BME280;11985;49.404;7.734;2022-09-02T03:08:43;97284.72;;;12.00;78.49
23616;BME280;11985;49.404;7.734;2022-09-02T03:10:48;97295.47;;;11.99;78.57
23616;BME280;11985;49.404;7.734;2022-09-02T03:12:53;97297.28;;;11.98;78.82
23616;BME280;11985;49.404;7.734;2022-09-02T03:14:54;97294.47;;;12.00;78.81
23616;BME280;11985;49.404;7.734;2022-09-02T03:16:57;97295.28;;;12.00;78.99
23616;BME280;11985;49.404;7.734;2022-09-02T03:18:59;97295.84;;;12.02;79.07
23616;BME280;11985;49.404;7.734;2022-09-02T03:21:05;97300.56;;;12.00;79.01
23616;BME280;11985;49.404;7.734;2022-09-02T03:23:08;97301.78;;;11.98;79.27
23616;BME280;11985;49.404;7.734;2022-09-02T03:25:14;97294.28;;;11.95;79.37
23616;BME280;11985;49.404;7.734;2022-09-02T03:27:16;97294.94;;;11.90;79.42
23616;BME280;11985;49.404;7.734;2022-09-02T03:29:17;97302.22;;;11.88;79.45
23616;BME280;11985;49.404;7.734;2022-09-02T03:31:21;97304.28;;;11.86;79.52
23616;BME280;11985;49.404;7.734;2022-09-02T03:33:24;97298.59;;;11.82;79.69
23616;BME280;11985;49.404;7.734;2022-09-02T03:35:27;97296.59;;;11.78;79.55
23616;BME280;11985;49.404;7.734;2022-09-02T03:37:29;97300.69;;;11.74;79.79
23616;BME280;11985;49.404;7.734;2022-09-02T03:39:30;97301.09;;;11.71;79.88
23616;BME280;11985;49.404;7.734;2022-09-02T03:41:32;97292.19;;;11.65;79.94
23616;BME280;11985;49.404;7.734;2022-09-02T03:43:34;97299.50;;;11.63;79.99
23616;BME280;11985;49.404;7.734;2022-09-02T03:45:35;97293.84;;;11.59;80.10
23616;BME280;11985;49.404;7.734;2022-09-02T03:47:37;97290.84;;;11.56;80.18
23616;BME280;11985;49.404;7.734;2022-09-02T03:49:44;97283.34;;;11.53;80.34
23616;BME280;11985;49.404;7.734;2022-09-02T03:51:45;97294.09;;;11.51;80.49
23616;BME280;11985;49.404;7.734;2022-09-02T03:53:47;97284.34;;;11.52;80.52
23616;BME280;11985;49.404;7.734;2022-09-02T03:55:49;97282.72;;;11.57;80.89
23616;BME280;11985;49.404;7.734;2022-09-02T03:57:50;97280.47;;;11.61;80.63
23616;BME280;11985;49.404;7.734;2022-09-02T03:59:53;97286.09;;;11.64;80.63
23616;BME280;11985;49.404;7.734;2022-09-02T04:01:55;97285.88;;;11.73;80.73
23616;BME280;11985;49.404;7.734;2022-09-02T04:03:56;97287.66;;;11.79;80.75
23616;BME280;11985;49.404;7.734;2022-09-02T04:05:59;97287.88;;;11.84;80.63
23616;BME280;11985;49.404;7.734;2022-09-02T04:08:01;97283.16;;;11.86;80.50
23616;BME280;11985;49.404;7.734;2022-09-02T04:10:03;97282.94;;;11.87;80.28
23616;BME280;11985;49.404;7.734;2022-09-02T04:12:05;97287.41;;;11.87;80.25
23616;BME280;11985;49.404;7.734;2022-09-02T04:14:07;97283.63;;;11.83;80.21
23616;BME280;11985;49.404;7.734;2022-09-02T04:16:11;97286.06;;;11.78;80.18
23616;BME280;11985;49.404;7.734;2022-09-02T04:21:32;97284.50;;;11.63;80.05
23616;BME280;11985;49.404;7.734;2022-09-02T04:23:34;97274.78;;;11.57;80.23
23616;BME280;11985;49.404;7.734;2022-09-02T04:25:38;97279.88;;;11.52;79.94
23616;BME280;11985;49.404;7.734;2022-09-02T04:27:40;97277.69;;;11.49;80.35
23616;BME280;11985;49.404;7.734;2022-09-02T04:29:42;97276.50;;;11.45;80.44
23616;BME280;11985;49.404;7.734;2022-09-02T04:31:43;97274.69;;;11.39;80.60
23616;BME280;11985;49.404;7.734;2022-09-02T04:33:45;97275.31;;;11.34;80.56
23616;BME280;11985;49.404;7.734;2022-09-02T04:35:47;97273.09;;;11.31;80.67
23616;BME280;11985;49.404;7.734;2022-09-02T04:37:50;97280.00;;;11.26;80.68
23616;BME280;11985;49.404;7.734;2022-09-02T04:39:52;97279.81;;;11.21;80.69
23616;BME280;11985;49.404;7.734;2022-09-02T04:41:54;97275.38;;;11.15;80.97
23616;BME280;11985;49.404;7.734;2022-09-02T04:43:57;97281.09;;;11.12;80.93
23616;BME280;11985;49.404;7.734;2022-09-02T04:46:03;97274.41;;;11.09;81.12
23616;BME280;11985;49.404;7.734;2022-09-02T04:48:05;97278.88;;;11.08;81.19
23616;BME280;11985;49.404;7.734;2022-09-02T04:50:07;97273.00;;;11.06;81.34
23616;BME280;11985;49.404;7.734;2022-09-02T04:52:09;97266.53;;;11.02;81.38
23616;BME280;11985;49.404;7.734;2022-09-02T04:54:12;97279.50;;;10.97;81.48
23616;BME280;11985;49.404;7.734;2022-09-02T04:56:16;97274.63;;;11.01;81.56
23616;BME280;11985;49.404;7.734;2022-09-02T04:58:19;97278.28;;;11.06;81.62
23616;BME280;11985;49.404;7.734;2022-09-02T05:00:20;97281.69;;;11.14;81.64
23616;BME280;11985;49.404;7.734;2022-09-02T05:02:22;97281.88;;;11.19;81.62
23616;BME280;11985;49.404;7.734;2022-09-02T05:04:23;97285.28;;;11.26;81.66
23616;BME280;11985;49.404;7.734;2022-09-02T05:06:27;97285.91;;;11.28;81.47
23616;BME280;11985;49.404;7.734;2022-09-02T05:08:28;97286.50;;;11.30;81.61
23616;BME280;11985;49.404;7.734;2022-09-02T05:10:32;97284.25;;;11.27;81.62
23616;BME280;11985;49.404;7.734;2022-09-02T05:12:34;97289.53;;;11.27;81.50
23616;BME280;11985;49.404;7.734;2022-09-02T05:14:36;97278.63;;;11.23;81.57
23616;BME280;11985;49.404;7.734;2022-09-02T05:16:38;97278.63;;;11.23;81.53
23616;BME280;11985;49.404;7.734;2022-09-02T05:18:40;97280.81;;;11.26;81.71
23616;BME280;11985;49.404;7.734;2022-09-02T05:20:41;97278.19;;;11.26;81.62
23616;BME280;11985;49.404;7.734;2022-09-02T05:22:43;97286.09;;;11.26;81.65
23616;BME280;11985;49.404;7.734;2022-09-02T05:24:45;97284.25;;;11.27;81.64
23616;BME280;11985;49.404;7.734;2022-09-02T05:26:48;97285.91;;;11.28;81.69
23616;BME280;11985;49.404;7.734;2022-09-02T05:28:50;97280.19;;;11.31;81.72
23616;BME280;11985;49.404;7.734;2022-09-02T05:30:51;97283.44;;;11.33;81.76
23616;BME280;11985;49.404;7.734;2022-09-02T05:32:53;97287.69;;;11.34;81.73
23616;BME280;11985;49.404;7.734;2022-09-02T05:34:54;97283.78;;;11.43;81.82
23616;BME280;11985;49.404;7.734;2022-09-02T05:36:56;97291.03;;;11.54;81.76
23616;BME280;11985;49.404;7.734;2022-09-02T05:38:58;97287.13;;;11.63;81.69
23616;BME280;11985;49.404;7.734;2022-09-02T05:41:03;97292.19;;;11.72;81.55
23616;BME280;11985;49.404;7.734;2022-09-02T05:43:08;97290.06;;;11.80;81.49
23616;BME280;11985;49.404;7.734;2022-09-02T05:45:10;97289.22;;;11.93;80.97
23616;BME280;11985;49.404;7.734;2022-09-02T05:47:11;97292.63;;;12.00;81.08
23616;BME280;11985;49.404;7.734;2022-09-02T05:49:13;97285.19;;;12.15;80.89
23616;BME280;11985;49.404;7.734;2022-09-02T05:51:17;97283.50;;;12.28;80.46
23616;BME280;11985;49.404;7.734;2022-09-02T05:53:18;97288.25;;;12.37;80.32
23616;BME280;11985;49.404;7.734;2022-09-02T05:55:20;97290.41;;;12.47;79.91
23616;BME280;11985;49.404;7.734;2022-09-02T05:57:22;97288.31;;;12.56;79.79
23616;BME280;11985;49.404;7.734;2022-09-02T05:59:27;97291.47;;;12.64;79.48
23616;BME280;11985;49.404;7.734;2022-09-02T06:01:29;97294.00;;;12.78;79.03
23616;BME280;11985;49.404;7.734;2022-09-02T06:03:30;97287.53;;;12.92;78.65
23616;BME280;11985;49.404;7.734;2022-09-02T06:05:32;97288.00;;;13.07;78.23
23616;BME280;11985;49.404;7.734;2022-09-02T06:07:35;97288.06;;;13.19;77.90
23616;BME280;11985;49.404;7.734;2022-09-02T06:09:36;97296.69;;;13.33;77.31
23616;BME280;11985;49.404;7.734;2022-09-02T06:11:39;97288.00;;;13.44;76.91
23616;BME280;11985;49.404;7.734;2022-09-02T06:13:44;97288.84;;;13.56;76.53
23616;BME280;11985;49.404;7.734;2022-09-02T06:15:47;97280.97;;;13.68;76.28
23616;BME280;11985;49.404;7.734;2022-09-02T06:17:49;97282.84;;;13.79;75.90
23616;BME280;11985;49.404;7.734;2022-09-02T06:19:51;97272.84;;;13.93;75.51
23616;BME280;11985;49.404;7.734;2022-09-02T06:21:53;97278.78;;;14.07;74.73
23616;BME280;11985;49.404;7.734;2022-09-02T06:23:55;97277.31;;;14.22;74.54
23616;BME280;11985;49.404;7.734;2022-09-02T06:25:57;97281.00;;;14.45;73.96
23616;BME280;11985;49.404;7.734;2022-09-02T06:27:59;97269.41;;;14.69;73.44
23616;BME280;11985;49.404;7.734;2022-09-02T06:30:01;97272.00;;;14.93;72.79
23616;BME280;11985;49.404;7.734;2022-09-02T06:32:04;97270.84;;;15.12;72.13
23616;BME280;11985;49.404;7.734;2022-09-02T06:34:05;97271.72;;;15.29;71.48
23616;BME280;11985;49.404;7.734;2022-09-02T06:36:15;97273.63;;;15.46;70.81
23616;BME280;11985;49.404;7.734;2022-09-02T06:38:17;97267.81;;;15.61;70.10
23616;BME280;11985;49.404;7.734;2022-09-02T06:40:20;97268.84;;;15.71;69.61
23616;BME280;11985;49.404;7.734;2022-09-02T06:42:21;97266.25;;;15.76;69.21
23616;BME280;11985;49.404;7.734;2022-09-02T06:44:23;97265.72;;;15.91;68.79
23616;BME280;11985;49.404;7.734;2022-09-02T06:46:26;97272.81;;;16.02;68.23
23616;BME280;11985;49.404;7.734;2022-09-02T06:48:29;97270.66;;;16.16;67.63
23616;BME280;11985;49.404;7.734;2022-09-02T06:50:32;97263.97;;;16.30;67.25
23616;BME280;11985;49.404;7.734;2022-09-02T06:52:33;97262.28;;;16.41;66.83
23616;BME280;11985;49.404;7.734;2022-09-02T06:54:35;97261.94;;;16.54;66.36
23616;BME280;11985;49.404;7.734;2022-09-02T06:56:37;97268.28;;;16.70;65.67
23616;BME280;11985;49.404;7.734;2022-09-02T06:58:38;97264.19;;;16.79;65.26
23616;BME280;11985;49.404;7.734;2022-09-02T07:00:41;97273.38;;;16.88;64.69
23616;BME280;11985;49.404;7.734;2022-09-02T07:02:42;97264.94;;;16.97;64.35
23616;BME280;11985;49.404;7.734;2022-09-02T07:05:06;97257.03;;;17.02;63.94
23616;BME280;11985;49.404;7.734;2022-09-02T07:07:09;97262.50;;;17.12;63.54
23616;BME280;11985;49.404;7.734;2022-09-02T07:09:13;97264.53;;;17.27;62.84
23616;BME280;11985;49.404;7.734;2022-09-02T07:11:20;97263.56;;;17.33;62.53
23616;BME280;11985;49.404;7.734;2022-09-02T07:13:22;97260.75;;;17.45;62.15
23616;BME280;11985;49.404;7.734;2022-09-02T07:15:23;97261.66;;;17.55;61.71
23616;BME280;11985;49.404;7.734;2022-09-02T07:17:25;97259.22;;;17.54;61.20
23616;BME280;11985;49.404;7.734;2022-09-02T07:19:27;97258.75;;;17.57;60.92
23616;BME280;11985;49.404;7.734;2022-09-02T07:21:30;97260.88;;;17.60;60.53
23616;BME280;11985;49.404;7.734;2022-09-02T07:23:32;97260.66;;;17.61;60.19
23616;BME280;11985;49.404;7.734;2022-09-02T07:25:33;97260.09;;;17.59;59.83
23616;BME280;11985;49.404;7.734;2022-09-02T07:27:35;97258.34;;;17.70;59.40
23616;BME280;11985;49.404;7.734;2022-09-02T07:29:37;97259.53;;;17.79;58.84
23616;BME280;11985;49.404;7.734;2022-09-02T07:31:44;97264.41;;;17.87;58.65
23616;BME280;11985;49.404;7.734;2022-09-02T07:33:46;97263.09;;;17.90;58.19
23616;BME280;11985;49.404;7.734;2022-09-02T07:35:48;97263.41;;;17.93;57.87
23616;BME280;11985;49.404;7.734;2022-09-02T07:37:53;97259.97;;;17.98;57.73
23616;BME280;11985;49.404;7.734;2022-09-02T07:39:55;97258.72;;;18.06;57.36
23616;BME280;11985;49.404;7.734;2022-09-02T07:41:57;97261.97;;;18.13;57.20
23616;BME280;11985;49.404;7.734;2022-09-02T07:43:58;97265.75;;;18.17;56.92
23616;BME280;11985;49.404;7.734;2022-09-02T07:46:00;97265.56;;;18.29;56.63
23616;BME280;11985;49.404;7.734;2022-09-02T07:48:03;97268.06;;;18.40;56.32
23616;BME280;11985;49.404;7.734;2022-09-02T07:50:06;97265.50;;;18.56;56.08
23616;BME280;11985;49.404;7.734;2022-09-02T07:52:08;97265.34;;;18.67;55.95
23616;BME280;11985;49.404;7.734;2022-09-02T07:54:11;97267.50;;;18.76;55.49
23616;BME280;11985;49.404;7.734;2022-09-02T07:56:13;97267.84;;;18.84;55.04
23616;BME280;11985;49.404;7.734;2022-09-02T07:58:15;97264.16;;;18.95;54.61
23616;BME280;11985;49.404;7.734;2022-09-02T08:00:20;97258.88;;;19.06;54.51
23616;BME280;11985;49.404;7.734;2022-09-02T08:02:26;97257.88;;;19.17;53.88
23616;BME280;11985;49.404;7.734;2022-09-02T08:04:28;97256.25;;;19.16;54.06
23616;BME280;11985;49.404;7.734;2022-09-02T08:06:29;97261.88;;;19.24;53.58
23616;BME280;11985;49.404;7.734;2022-09-02T08:08:32;97258.94;;;19.26;53.48
23616;BME280;11985;49.404;7.734;2022-09-02T08:10:36;97262.19;;;19.28;53.03
23616;BME280;11985;49.404;7.734;2022-09-02T08:12:38;97259.50;;;19.23;52.78
23616;BME280;11985;49.404;7.734;2022-09-02T08:14:40;97258.94;;;19.16;52.76
23616;BME280;11985;49.404;7.734;2022-09-02T08:16:42;97261.56;;;19.11;52.68
23616;BME280;11985;49.404;7.734;2022-09-02T08:18:44;97263.69;;;19.09;52.41
23616;BME280;11985;49.404;7.734;2022-09-02T08:20:47;97257.59;;;19.18;52.20
23616;BME280;11985;49.404;7.734;2022-09-02T08:22:49;97253.13;;;19.34;51.94
23616;BME280;11985;49.404;7.734;2022-09-02T08:24:50;97262.47;;;19.42;51.56
23616;BME280;11985;49.404;7.734;2022-09-02T08:26:53;97267.59;;;19.53;51.32
23616;BME280;11985;49.404;7.734;2022-09-02T08:28:55;97258.78;;;19.53;50.88
23616;BME280;11985;49.404;7.734;2022-09-02T08:30:57;97266.56;;;19.55;50.71
23616;BME280;11985;49.404;7.734;2022-09-02T08:32:58;97266.81;;;19.58;50.30
23616;BME280;11985;49.404;7.734;2022-09-02T08:35:00;97266.81;;;19.58;50.10
23616;BME280;11985;49.404;7.734;2022-09-02T08:37:04;97259.63;;;19.64;49.99
23616;BME280;11985;49.404;7.734;2022-09-02T08:39:05;97266.06;;;19.68;49.80
23616;BME280;11985;49.404;7.734;2022-09-02T08:41:12;97261.00;;;19.71;49.41
23616;BME280;11985;49.404;7.734;2022-09-02T08:43:26;97258.59;;;19.80;49.38
23616;BME280;11985;49.404;7.734;2022-09-02T08:45:31;97254.88;;;19.86;48.97
23616;BME280;11985;49.404;7.734;2022-09-02T08:47:36;97256.22;;;19.89;48.45
23616;BME280;11985;49.404;7.734;2022-09-02T08:49:43;97266.91;;;19.84;48.09
23616;BME280;11985;49.404;7.734;2022-09-02T08:51:49;97261.81;;;19.82;47.84
23616;BME280;11985;49.404;7.734;2022-09-02T08:53:55;97268.78;;;19.83;47.58
23616;BME280;11985;49.404;7.734;2022-09-02T08:56:00;97264.75;;;19.86;47.25
23616;BME280;11985;49.404;7.734;2022-09-02T08:58:03;97261.28;;;19.85;47.29
23616;BME280;11985;49.404;7.734;2022-09-02T09:00:07;97261.81;;;19.82;47.05
23616;BME280;11985;49.404;7.734;2022-09-02T09:02:16;97261.00;;;19.82;46.82
23616;BME280;11985;49.404;7.734;2022-09-02T09:04:31;97257.81;;;19.85;46.67
23616;BME280;11985;49.404;7.734;2022-09-02T09:06:47;97259.44;;;19.91;46.64
23616;BME280;11985;49.404;7.734;2022-09-02T09:08:58;97260.78;;;19.88;46.18
23616;BME280;11985;49.404;7.734;2022-09-02T09:11:05;97244.75;;;19.88;46.07
23616;BME280;11985;49.404;7.734;2022-09-02T09:15:42;97261.31;;;19.95;45.48
23616;BME280;11985;49.404;7.734;2022-09-02T09:17:49;97261.59;;;19.99;45.25
23616;BME280;11985;49.404;7.734;2022-09-02T09:19:54;97267.19;;;20.02;44.96
23616;BME280;11985;49.404;7.734;2022-09-02T09:21:59;97254.91;;;20.12;44.89
23616;BME280;11985;49.404;7.734;2022-09-02T09:24:07;97254.63;;;20.18;44.60
23616;BME280;11985;49.404;7.734;2022-09-02T09:26:10;97255.44;;;20.34;44.32
23616;BME280;11985;49.404;7.734;2022-09-02T09:28:12;97255.97;;;20.56;44.29
23616;BME280;11985;49.404;7.734;2022-09-02T09:30:14;97258.09;;;20.75;44.08
23616;BME280;11985;49.404;7.734;2022-09-02T09:32:22;97251.63;;;20.86;43.60
23616;BME280;11985;49.404;7.734;2022-09-02T09:34:54;97252.19;;;20.78;43.28
23616;BME280;11985;49.404;7.734;2022-09-02T09:36:56;97242.03;;;20.75;42.76
23616;BME280;11985;49.404;7.734;2022-09-02T09:38:58;97245.25;;;20.72;42.90
23616;BME280;11985;49.404;7.734;2022-09-02T09:41:10;97244.97;;;20.78;42.68
23616;BME280;11985;49.404;7.734;2022-09-02T09:43:14;97245.75;;;20.89;42.70
23616;BME280;11985;49.404;7.734;2022-09-02T09:45:16;97244.66;;;20.95;42.61
23616;BME280;11985;49.404;7.734;2022-09-02T09:47:24;97255.31;;;21.11;42.42
23616;BME280;11985;49.404;7.734;2022-09-02T09:49:26;97255.25;;;21.21;42.47
23616;BME280;11985;49.404;7.734;2022-09-02T09:51:27;97250.97;;;21.25;42.02
23616;BME280;11985;49.404;7.734;2022-09-02T09:53:30;97246.41;;;21.25;42.10
23616;BME280;11985;49.404;7.734;2022-09-02T09:55:33;97229.53;;;21.35;41.60
23616;BME280;11985;49.404;7.734;2022-09-02T09:57:49;97234.88;;;21.35;41.63
23616;BME280;11985;49.404;7.734;2022-09-02T09:59:52;97234.09;;;21.34;41.28
23616;BME280;11985;49.404;7.734;2022-09-02T10:01:56;97236.19;;;21.38;41.01
23616;BME280;11985;49.404;7.734;2022-09-02T10:04:01;97233.81;;;21.36;40.91
23616;BME280;11985;49.404;7.734;2022-09-02T10:06:17;97229.22;;;21.42;40.65
23616;BME280;11985;49.404;7.734;2022-09-02T10:08:21;97235.47;;;21.22;40.04
23616;BME280;11985;49.404;7.734;2022-09-02T10:10:24;97239.81;;;21.02;40.20
23616;BME280;11985;49.404;7.734;2022-09-02T10:12:30;97241.94;;;21.05;40.27
23616;BME280;11985;49.404;7.734;2022-09-02T10:14:34;97230.16;;;21.12;40.07
23616;BME280;11985;49.404;7.734;2022-09-02T10:16:48;97231.75;;;21.13;40.24
23616;BME280;11985;49.404;7.734;2022-09-02T10:19:00;97234.41;;;21.18;39.87
23616;BME280;11985;49.404;7.734;2022-09-02T10:21:07;97223.69;;;21.18;39.64
23616;BME280;11985;49.404;7.734;2022-09-02T10:23:20;97221.53;;;21.20;39.46
23616;BME280;11985;49.404;7.734;2022-09-02T10:25:32;97238.94;;;21.22;39.61
23616;BME280;11985;49.404;7.734;2022-09-02T10:27:40;97221.50;;;21.30;39.22
23616;BME280;11985;49.404;7.734;2022-09-02T10:29:51;97224.16;;;21.35;38.92
23616;BME280;11985;49.404;7.734;2022-09-02T10:32:09;97217.75;;;21.31;38.73
23616;BME280;11985;49.404;7.734;2022-09-02T10:34:23;97210.50;;;21.37;38.46
23616;BME280;11985;49.404;7.734;2022-09-02T10:36:33;97201.31;;;21.48;38.67
23616;BME280;11985;49.404;7.734;2022-09-02T10:38:41;97217.13;;;21.54;38.23
23616;BME280;11985;49.404;7.734;2022-09-02T10:40:44;97200.44;;;21.63;38.54
23616;BME280;11985;49.404;7.734;2022-09-02T10:42:58;97194.47;;;21.71;38.16
23616;BME280;11985;49.404;7.734;2022-09-02T10:45:10;97198.50;;;21.73;38.05
23616;BME280;11985;49.404;7.734;2022-09-02T10:47:22;97184.28;;;21.73;37.51
23616;BME280;11985;49.404;7.734;2022-09-02T10:49:41;97203.09;;;21.63;37.18
23616;BME280;11985;49.404;7.734;2022-09-02T10:51:48;97191.34;;;21.58;37.08
23616;BME280;11985;49.404;7.734;2022-09-02T10:54:04;97191.84;;;21.66;37.27
23616;BME280;11985;49.404;7.734;2022-09-02T10:56:13;97177.81;;;21.79;37.40
23616;BME280;11985;49.404;7.734;2022-09-02T10:58:18;97180.88;;;21.96;37.10
23616;BME280;11985;49.404;7.734;2022-09-02T11:00:22;97181.88;;;22.10;36.93